createdAt,value
2019-02-09T00:00:35.568Z,7.00
2019-02-09T00:03:13.906Z,7.00
2019-02-09T00:05:47.605Z,11.00
2019-02-09T00:08:21.363Z,11.25
2019-02-09T00:10:57.070Z,11.50
2019-02-09T00:13:34.567Z,12.33
2019-02-09T00:16:15.177Z,8.00
2019-02-09T00:18:46.412Z,8.67
2019-02-09T00:21:19.162Z,11.25
2019-02-09T00:23:50.058Z,7.33
2019-02-09T00:26:21.205Z,8.33
2019-02-09T00:28:56.424Z,8.33
2019-02-09T00:31:31.740Z,13.00
2019-02-09T00:34:01.566Z,11.00
2019-02-09T00:36:32.577Z,11.00
2019-02-09T00:39:04.578Z,11.00
2019-02-09T00:41:34.510Z,10.33
2019-02-09T00:44:08.647Z,8.60
2019-02-09T00:46:42.870Z,10.33
2019-02-09T00:49:17.413Z,5.67
2019-02-09T00:51:49.368Z,9.00
2019-02-09T00:54:27.026Z,11.67
2019-02-09T00:56:55.616Z,13.00
2019-02-09T00:59:29.913Z,9.00
2019-02-09T01:02:01.902Z,9.00
2019-02-09T01:04:34.682Z,7.67
2019-02-09T01:07:05.868Z,7.00
2019-02-09T01:09:40.948Z,7.00
2019-02-09T01:12:14.261Z,5.00
2019-02-09T01:14:51.004Z,7.00
2019-02-09T01:17:23.110Z,6.60
2019-02-09T01:19:54.805Z,6.20
2019-02-09T01:22:28.049Z,3.67
2019-02-09T01:25:00.314Z,9.00
2019-02-09T01:27:31.158Z,5.00
2019-02-09T01:30:04.646Z,9.67
2019-02-09T01:32:35.669Z,11.00
2019-02-09T01:35:09.664Z,9.00
2019-02-09T01:37:40.533Z,7.00
2019-02-09T01:40:17.736Z,9.00
2019-02-09T01:42:53.778Z,10.67
2019-02-09T01:45:30.246Z,7.00
2019-02-09T01:48:01.424Z,9.00
2019-02-09T01:50:32.660Z,11.00
2019-02-09T01:53:03.448Z,5.00
2019-02-09T01:55:35.408Z,9.00
2019-02-09T01:58:06.205Z,7.00
2019-02-09T02:00:40.062Z,5.33
2019-02-09T02:03:11.944Z,9.25
2019-02-09T02:05:42.719Z,6.33
2019-02-09T02:08:15.868Z,10.75
2019-02-09T02:10:47.008Z,7.33
2019-02-09T02:13:17.849Z,5.33
2019-02-09T02:15:49.391Z,9.25
2019-02-09T02:18:21.205Z,7.25
2019-02-09T02:20:51.075Z,9.00
2019-02-09T02:23:21.825Z,7.33
2019-02-09T02:25:52.932Z,7.33
2019-02-09T02:28:23.666Z,11.00
2019-02-09T02:30:55.282Z,9.50
2019-02-09T02:33:26.131Z,10.33
2019-02-09T02:35:55.908Z,9.00
2019-02-09T02:38:27.077Z,9.33
2019-02-09T02:41:01.555Z,9.40
2019-02-09T02:43:33.249Z,9.40
2019-02-09T02:46:03.987Z,6.00
2019-02-09T02:48:34.672Z,6.67
2019-02-09T02:51:09.661Z,7.33
2019-02-09T02:53:41.119Z,11.25
2019-02-09T02:56:17.815Z,9.33
2019-02-09T02:58:49.547Z,11.33
2019-02-09T03:01:21.217Z,11.25
2019-02-09T03:03:52.865Z,10.33
2019-02-09T03:06:23.641Z,7.33
2019-02-09T03:08:55.215Z,6.60
2019-02-09T03:11:25.855Z,10.33
2019-02-09T03:13:56.688Z,8.33
2019-02-09T03:16:28.667Z,10.33
2019-02-09T03:18:59.982Z,6.67
2019-02-09T03:21:31.540Z,8.75
2019-02-09T03:24:02.375Z,7.00
2019-02-09T03:26:35.785Z,7.67
2019-02-09T03:29:06.479Z,9.33
2019-02-09T03:31:37.349Z,7.00
2019-02-09T03:34:08.120Z,9.00
2019-02-09T03:36:38.902Z,7.33
2019-02-09T03:39:10.466Z,10.50
2019-02-09T03:41:41.261Z,10.00
2019-02-09T03:44:20.912Z,3.60
2019-02-09T03:46:51.735Z,5.67
2019-02-09T03:49:22.539Z,9.33
2019-02-09T03:51:53.275Z,7.33
2019-02-09T03:54:24.070Z,8.67
2019-02-09T03:56:54.887Z,6.67
2019-02-09T03:59:26.074Z,9.33
2019-02-09T04:01:57.001Z,8.33
2019-02-09T04:04:27.812Z,5.33
2019-02-09T04:06:58.689Z,8.00
2019-02-09T04:09:29.566Z,5.33
2019-02-09T04:12:01.114Z,9.80
2019-02-09T04:14:32.180Z,7.00
2019-02-09T04:17:03.020Z,7.00
2019-02-09T04:19:35.111Z,5.67
2019-02-09T04:22:06.036Z,7.00
2019-02-09T04:24:36.822Z,7.33
2019-02-09T04:27:07.715Z,8.33
2019-02-09T04:29:38.581Z,5.33
2019-02-09T04:32:09.309Z,6.33
2019-02-09T04:34:40.043Z,7.00
2019-02-09T04:37:13.554Z,8.67
2019-02-09T04:39:44.352Z,5.33
2019-02-09T04:42:15.181Z,7.00
2019-02-09T04:44:47.226Z,10.50
2019-02-09T04:47:17.912Z,5.33
2019-02-09T04:49:48.986Z,5.00
2019-02-09T04:52:20.243Z,7.67
2019-02-09T04:54:50.995Z,5.00
2019-02-09T04:57:22.175Z,7.00
2019-02-09T04:59:52.918Z,5.33
2019-02-09T05:02:23.842Z,5.00
2019-02-09T05:04:54.899Z,5.33
2019-02-09T05:07:25.616Z,8.33
2019-02-09T05:09:56.411Z,8.33
2019-02-09T05:12:27.625Z,7.00
2019-02-09T05:14:59.592Z,7.00
2019-02-09T05:17:30.514Z,8.33
2019-02-09T05:20:03.665Z,6.33
2019-02-09T05:22:36.271Z,5.67
2019-02-09T05:25:12.579Z,9.00
2019-02-09T05:27:46.508Z,8.33
2019-02-09T05:30:23.414Z,5.67
2019-02-09T05:32:55.353Z,4.20
2019-02-09T05:35:26.194Z,7.00
2019-02-09T05:37:58.127Z,7.00
2019-02-09T05:40:28.967Z,5.00
2019-02-09T05:42:59.803Z,5.00
2019-02-09T05:45:37.938Z,4.60
2019-02-09T05:48:09.410Z,6.33
2019-02-09T05:50:41.284Z,5.00
2019-02-09T05:53:12.097Z,5.67
2019-02-09T05:55:43.055Z,5.67
2019-02-09T05:58:27.170Z,7.00
2019-02-09T06:00:58.948Z,3.00
2019-02-09T06:03:29.692Z,3.67
2019-02-09T06:06:00.824Z,3.00
2019-02-09T06:08:31.602Z,3.00
2019-02-09T06:11:03.337Z,3.00
2019-02-09T06:13:34.050Z,3.00
2019-02-09T06:16:07.065Z,1.67
2019-02-09T06:18:38.089Z,2.33
2019-02-09T06:21:08.929Z,1.00
2019-02-09T06:23:41.454Z,1.00
2019-02-09T06:26:13.433Z,1.00
2019-02-09T06:28:44.283Z,1.00
2019-02-09T06:31:15.101Z,1.00
2019-02-09T06:33:47.899Z,1.00
2019-02-09T06:36:22.397Z,1.00
2019-02-09T06:38:53.070Z,1.00
2019-02-09T06:41:23.866Z,3.00
2019-02-09T06:43:54.592Z,3.00
2019-02-09T06:46:25.839Z,1.00
2019-02-09T06:48:56.613Z,1.00
2019-02-09T06:51:28.431Z,3.00
2019-02-09T06:53:59.629Z,1.00
2019-02-09T06:56:30.357Z,1.00
2019-02-09T06:59:01.142Z,1.67
2019-02-09T07:01:31.917Z,2.33
2019-02-09T07:04:05.308Z,1.00
2019-02-09T07:06:36.046Z,1.67
2019-02-09T07:09:11.361Z,5.00
2019-02-09T07:11:42.194Z,1.00
2019-02-09T07:14:13.034Z,1.00
2019-02-09T07:16:43.739Z,3.00
2019-02-09T07:19:14.604Z,2.33
2019-02-09T07:21:51.128Z,1.00
2019-02-09T07:24:25.060Z,3.00
2019-02-09T07:26:59.103Z,1.00
2019-02-09T07:29:29.882Z,3.00
2019-02-09T07:32:02.310Z,3.00
2019-02-09T07:34:36.133Z,1.00
2019-02-09T07:37:08.957Z,2.33
2019-02-09T07:39:46.985Z,1.00
2019-02-09T07:42:20.910Z,1.00
2019-02-09T07:44:55.104Z,1.00
2019-02-09T07:47:34.700Z,1.00
2019-02-09T07:50:11.487Z,3.00
2019-02-09T07:52:45.604Z,1.00
2019-02-09T07:55:25.161Z,1.00
2019-02-09T07:58:02.847Z,3.00
2019-02-09T08:00:41.931Z,1.00
2019-02-09T08:03:18.383Z,5.00
2019-02-09T08:05:49.587Z,1.00
2019-02-09T08:08:35.401Z,5.00
2019-02-09T08:11:23.421Z,1.67
2019-02-09T08:14:01.132Z,1.40
2019-02-09T08:16:36.460Z,5.00
2019-02-09T08:19:17.179Z,3.00
2019-02-09T08:21:48.489Z,5.00
2019-02-09T08:24:19.618Z,1.67
2019-02-09T08:26:50.565Z,3.00
2019-02-09T08:29:21.798Z,3.00
2019-02-09T08:31:53.049Z,3.00
2019-02-09T08:34:31.329Z,2.60
2019-02-09T08:37:03.673Z,3.00
2019-02-09T08:39:36.174Z,3.00
2019-02-09T08:42:12.023Z,5.00
2019-02-09T08:44:44.883Z,3.00
2019-02-09T08:47:17.835Z,3.80
2019-02-09T08:49:54.229Z,3.00
2019-02-09T08:52:31.441Z,3.00
2019-02-09T08:55:12.077Z,3.00
2019-02-09T08:57:47.476Z,3.00
2019-02-09T09:00:28.531Z,4.60
2019-02-09T09:03:02.574Z,3.00
2019-02-09T09:05:38.267Z,3.00
2019-02-09T09:08:09.994Z,3.00
2019-02-09T09:10:42.504Z,1.40
2019-02-09T09:13:15.682Z,5.00
2019-02-09T09:15:53.354Z,3.00
2019-02-09T09:18:35.683Z,4.33
2019-02-09T09:21:09.540Z,3.00
2019-02-09T09:23:41.384Z,1.40
2019-02-09T09:26:17.445Z,3.00
2019-02-09T09:28:49.377Z,2.60
2019-02-09T09:31:20.552Z,1.00
2019-02-09T09:33:55.980Z,3.00
2019-02-09T09:36:29.036Z,3.00
2019-02-09T09:39:06.872Z,1.00
2019-02-09T09:41:56.762Z,2.20
2019-02-09T09:44:32.418Z,3.00
2019-02-09T09:47:08.475Z,2.20
2019-02-09T09:49:40.866Z,3.80
2019-02-09T09:52:12.712Z,3.00
2019-02-09T09:54:47.183Z,3.00
2019-02-09T09:57:35.756Z,3.00
2019-02-09T10:00:19.530Z,5.00
2019-02-09T10:02:51.040Z,2.33
2019-02-09T10:05:25.468Z,2.20
2019-02-09T10:08:07.089Z,3.00
2019-02-09T10:10:41.935Z,3.00
2019-02-09T10:13:15.315Z,5.67
2019-02-09T10:15:55.191Z,3.00
2019-02-09T10:18:27.848Z,3.67
2019-02-09T10:21:09.931Z,3.00
2019-02-09T10:23:59.108Z,2.20
2019-02-09T10:26:36.261Z,5.00
2019-02-09T10:29:17.780Z,4.20
2019-02-09T10:31:51.646Z,7.33
2019-02-09T10:34:25.009Z,3.67
2019-02-09T10:36:57.740Z,3.67
2019-02-09T10:39:29.841Z,3.00
2019-02-09T10:42:02.765Z,1.67
2019-02-09T10:44:40.650Z,4.33
2019-02-09T10:47:16.427Z,3.00
2019-02-09T10:49:54.172Z,3.00
2019-02-09T10:52:28.226Z,3.00
2019-02-09T10:55:05.757Z,4.33
2019-02-09T10:57:41.259Z,3.67
2019-02-09T11:00:23.908Z,1.00
2019-02-09T11:02:56.011Z,3.00
2019-02-09T11:05:35.916Z,3.00
2019-02-09T11:08:18.569Z,5.00
2019-02-09T11:10:56.949Z,3.00
2019-02-09T11:13:31.036Z,3.00
2019-02-09T11:19:10.187Z,1.00
2019-02-09T11:21:39.154Z,7.00
2019-02-09T11:24:18.275Z,1.00
2019-02-09T11:27:00.281Z,3.40
2019-02-09T11:29:53.675Z,4.33
2019-02-09T11:32:33.479Z,1.00
2019-02-09T11:35:14.352Z,1.00
2019-02-09T11:37:53.155Z,1.40
2019-02-09T11:40:29.130Z,3.67
2019-02-09T11:43:37.735Z,3.00
2019-02-09T11:46:25.658Z,2.60
2019-02-09T11:49:01.274Z,5.00
2019-02-09T11:51:55.110Z,3.80
2019-02-09T11:55:10.682Z,3.00
2019-02-09T11:57:47.610Z,3.67
2019-02-09T12:00:47.719Z,1.80
2019-02-09T12:06:40.492Z,3.00
2019-02-09T12:09:26.321Z,1.00
2019-02-09T12:12:19.890Z,1.67
2019-02-09T12:15:01.253Z,1.67
2019-02-09T12:17:37.293Z,1.00
2019-02-09T12:20:17.279Z,2.60
2019-02-09T12:26:25.167Z,3.00
2019-02-09T12:29:11.314Z,3.00
2019-02-09T12:31:55.089Z,1.80
2019-02-09T12:34:42.297Z,1.00
2019-02-09T12:37:35.962Z,3.00
2019-02-09T12:40:33.727Z,3.00
2019-02-09T12:43:19.841Z,3.00
2019-02-09T12:46:02.952Z,1.00
2019-02-09T12:48:42.665Z,7.00
2019-02-09T12:51:26.189Z,3.00
2019-02-09T12:54:16.786Z,1.00
2019-02-09T12:57:19.641Z,5.00
2019-02-09T13:00:06.300Z,3.00
2019-02-09T13:02:57.366Z,3.00
2019-02-09T13:05:53.752Z,1.00
2019-02-09T13:08:35.727Z,1.67
2019-02-09T13:11:33.371Z,1.00
2019-02-09T13:14:16.170Z,1.00
2019-02-09T13:16:52.940Z,2.20
2019-02-09T13:19:36.276Z,1.80
2019-02-09T13:22:23.961Z,1.00
2019-02-09T13:24:55.030Z,2.33
2019-02-09T13:27:29.515Z,1.00
2019-02-09T13:30:04.622Z,1.00
2019-02-09T13:32:38.391Z,1.00
2019-02-09T13:35:14.968Z,1.80
2019-02-09T13:37:48.902Z,1.00
2019-02-09T13:40:25.024Z,2.33
2019-02-09T13:42:57.327Z,6.33
2019-02-09T13:45:32.913Z,1.00
2019-02-09T13:48:07.114Z,3.00
2019-02-09T13:50:43.141Z,3.00
2019-02-09T13:53:18.656Z,1.00
2019-02-09T13:55:52.798Z,2.60
2019-02-09T13:58:29.040Z,3.80
2019-02-09T14:01:03.642Z,1.00
2019-02-09T14:03:37.697Z,1.00
2019-02-09T14:06:08.656Z,1.00
2019-02-09T14:08:40.804Z,3.00
2019-02-09T14:11:11.777Z,3.67
2019-02-09T14:13:52.153Z,1.80
2019-02-09T14:16:28.389Z,1.00
2019-02-09T14:18:59.346Z,3.00
2019-02-09T14:21:35.522Z,1.00
2019-02-09T14:24:08.160Z,1.00
2019-02-09T14:26:39.251Z,2.33
2019-02-09T14:29:13.447Z,5.00
2019-02-09T14:31:46.413Z,3.80
2019-02-09T14:34:25.120Z,3.00
2019-02-09T14:36:57.452Z,5.00
2019-02-09T14:39:29.706Z,3.00
2019-02-09T14:42:01.512Z,3.00
2019-02-09T14:44:32.898Z,5.00
2019-02-09T14:47:06.066Z,3.00
2019-02-09T14:49:39.116Z,3.00
2019-02-09T14:52:15.412Z,1.80
2019-02-09T14:54:53.597Z,3.00
2019-02-09T14:57:31.644Z,4.33
2019-02-09T15:00:02.848Z,3.00
2019-02-09T15:02:38.997Z,1.00
2019-02-09T15:05:10.975Z,4.20
2019-02-09T15:07:42.770Z,3.80
2019-02-09T15:10:15.910Z,3.00
2019-02-09T15:12:50.267Z,1.00
2019-02-09T15:15:37.925Z,2.33
2019-02-09T15:18:11.783Z,3.00
2019-02-09T15:20:48.479Z,5.00
2019-02-09T15:23:26.079Z,3.00
2019-02-09T15:25:57.588Z,3.00
2019-02-09T15:28:30.125Z,3.00
2019-02-09T15:31:07.125Z,3.00
2019-02-09T15:33:40.046Z,1.00
2019-02-09T15:36:13.421Z,1.00
2019-02-09T15:38:44.454Z,3.67
2019-02-09T15:41:15.684Z,3.00
2019-02-09T15:43:53.077Z,1.00
2019-02-09T15:46:33.278Z,6.33
2019-02-09T15:49:07.120Z,3.80
2019-02-09T15:51:42.085Z,3.00
2019-02-09T15:54:13.749Z,9.00
2019-02-09T15:56:45.904Z,2.33
2019-02-09T15:59:17.007Z,2.33
2019-02-09T16:01:48.208Z,7.00
2019-02-09T16:04:20.597Z,2.20
2019-02-09T16:07:00.403Z,1.00
2019-02-09T16:09:43.023Z,1.00
2019-02-09T16:12:16.641Z,3.00
2019-02-09T16:14:50.226Z,4.60
2019-02-09T16:17:26.077Z,3.67
2019-02-09T16:20:00.965Z,4.60
2019-02-09T16:22:36.403Z,3.00
2019-02-09T16:25:07.835Z,3.00
2019-02-09T16:27:47.035Z,15.00
2019-02-09T16:30:31.223Z,7.00
2019-02-09T16:33:25.166Z,5.00
2019-02-09T16:35:56.963Z,5.00
2019-02-09T16:38:55.305Z,3.00
2019-02-09T16:41:31.790Z,3.00
2019-02-09T16:44:06.405Z,3.00
2019-02-09T16:46:47.605Z,2.00
2019-02-09T16:49:21.716Z,1.40
2019-02-09T16:51:53.909Z,2.60
2019-02-09T16:54:25.366Z,2.33
2019-02-09T16:57:07.287Z,3.00
2019-02-09T16:59:41.781Z,2.67
2019-02-09T17:02:13.148Z,5.33
2019-02-09T17:04:48.490Z,3.00
2019-02-09T17:07:21.701Z,3.33
2019-02-09T17:09:53.763Z,3.40
2019-02-09T17:12:30.901Z,1.33
2019-02-09T17:15:04.738Z,3.40
2019-02-09T17:17:45.822Z,3.33
2019-02-09T17:20:25.946Z,1.33
2019-02-09T17:23:05.457Z,1.40
2019-02-09T17:25:43.307Z,3.40
2019-02-09T17:28:16.747Z,2.00
2019-02-09T17:30:49.012Z,5.00
2019-02-09T17:33:20.331Z,1.33
2019-02-09T17:35:57.655Z,4.33
2019-02-09T17:38:31.568Z,3.33
2019-02-09T17:41:04.255Z,2.40
2019-02-09T17:43:39.694Z,2.33
2019-02-09T17:46:21.835Z,4.20
2019-02-09T17:48:58.163Z,3.20
2019-02-09T17:51:32.414Z,5.33
2019-02-09T17:54:08.124Z,4.67
2019-02-09T17:56:50.313Z,5.33
2019-02-09T17:59:31.414Z,3.00
2019-02-09T18:02:09.982Z,5.60
2019-02-09T18:04:54.101Z,1.80
2019-02-09T18:07:28.834Z,2.00
2019-02-09T18:10:03.859Z,1.60
2019-02-09T18:12:38.006Z,4.00
2019-02-09T18:15:14.320Z,1.33
2019-02-09T18:17:53.212Z,2.00
2019-02-09T18:20:29.332Z,5.33
2019-02-09T18:23:03.214Z,3.33
2019-02-09T18:25:37.821Z,2.67
2019-02-09T18:28:12.135Z,2.67
2019-02-09T18:30:49.904Z,3.33
2019-02-09T18:33:33.081Z,3.40
2019-02-09T18:36:07.118Z,7.00
2019-02-09T18:38:42.724Z,8.25
2019-02-09T18:41:15.422Z,3.33
2019-02-09T18:43:48.605Z,5.67
2019-02-09T18:46:20.337Z,7.00
2019-02-09T18:48:56.185Z,11.40
2019-02-09T18:51:30.575Z,5.67
2019-02-09T18:54:03.460Z,5.00
2019-02-09T18:59:31.333Z,9.40
2019-02-09T19:02:07.913Z,9.00
2019-02-09T19:04:45.311Z,15.00
2019-02-09T19:07:20.230Z,7.40
2019-02-09T19:09:51.579Z,9.00
2019-02-09T19:12:25.564Z,5.00
2019-02-09T19:15:00.581Z,7.00
2019-02-09T19:17:32.785Z,3.40
2019-02-09T19:20:16.241Z,3.67
2019-02-09T19:22:50.322Z,8.67
2019-02-09T19:25:24.196Z,3.33
2019-02-09T19:27:58.125Z,5.33
2019-02-09T19:30:34.494Z,6.33
2019-02-09T19:33:15.445Z,4.40
2019-02-09T19:35:56.126Z,3.40
2019-02-09T19:38:32.188Z,3.33
2019-02-09T19:41:08.705Z,9.60
2019-02-09T19:43:45.623Z,4.00
2019-02-09T19:46:49.448Z,5.20
2019-02-09T19:49:18.667Z,5.40
2019-02-09T19:51:58.671Z,7.33
2019-02-09T19:54:29.643Z,5.80
2019-02-09T19:57:07.926Z,5.33
2019-02-09T19:59:47.270Z,6.60
2019-02-09T20:02:24.660Z,4.67
2019-02-09T20:05:00.263Z,4.00
2019-02-09T20:07:32.437Z,7.67
2019-02-09T20:10:22.011Z,4.60
2019-02-09T20:13:00.401Z,6.67
2019-02-09T20:15:53.582Z,5.00
2019-02-09T20:18:42.072Z,6.33
2019-02-09T20:21:16.607Z,5.33
2019-02-09T20:23:55.222Z,3.80
2019-02-09T20:26:28.983Z,5.40
2019-02-09T20:29:00.572Z,3.67
2019-02-09T20:31:40.569Z,7.00
2019-02-09T20:34:16.066Z,10.50
2019-02-09T20:36:48.012Z,5.67
2019-02-09T20:39:22.047Z,3.00
2019-02-09T20:41:54.257Z,5.00
2019-02-09T20:44:41.756Z,3.80
2019-02-09T20:47:15.571Z,5.00
2019-02-09T20:49:48.335Z,5.00
2019-02-09T20:52:23.489Z,7.00
2019-02-09T20:55:00.690Z,3.40
2019-02-09T20:57:34.585Z,5.00
2019-02-09T21:00:17.939Z,5.00
2019-02-09T21:02:46.484Z,5.00
2019-02-09T21:05:21.371Z,3.00
2019-02-09T21:07:57.706Z,8.33
2019-02-09T21:10:46.257Z,7.00
2019-02-09T21:13:25.625Z,7.00
2019-02-09T21:16:05.910Z,5.00
2019-02-09T21:18:39.867Z,5.00
2019-02-09T21:21:12.123Z,5.00
2019-02-09T21:23:48.335Z,7.00
2019-02-09T21:26:23.250Z,5.00
2019-02-09T21:28:56.048Z,5.00
2019-02-09T21:31:40.346Z,5.67
2019-02-09T21:34:14.686Z,7.00
2019-02-09T21:36:47.515Z,3.00
2019-02-09T21:39:34.248Z,5.00
2019-02-09T21:42:08.830Z,5.67
2019-02-09T21:44:44.850Z,5.00
2019-02-09T21:47:21.272Z,3.80
2019-02-09T21:50:01.292Z,5.00
2019-02-09T21:52:33.487Z,7.00
2019-02-09T21:55:10.302Z,5.00
2019-02-09T21:57:45.622Z,5.00
2019-02-09T22:00:26.611Z,6.33
2019-02-09T22:02:58.309Z,6.33
2019-02-09T22:05:32.735Z,5.40
2019-02-09T22:08:05.977Z,6.33
2019-02-09T22:10:50.620Z,5.00
2019-02-09T22:13:24.652Z,3.00
2019-02-09T22:16:00.189Z,5.00
2019-02-09T22:18:34.783Z,5.00
2019-02-09T22:21:06.209Z,7.00
2019-02-09T22:23:41.405Z,5.00
2019-02-09T22:26:17.288Z,3.00
2019-02-09T22:28:57.343Z,5.00
2019-02-09T22:31:38.003Z,7.67
2019-02-09T22:34:11.153Z,5.00
2019-02-09T22:36:53.537Z,3.00
2019-02-09T22:39:31.706Z,5.80
2019-02-09T22:42:06.235Z,8.33
2019-02-09T22:44:44.182Z,8.00
2019-02-09T22:47:15.277Z,5.67
2019-02-09T22:49:53.197Z,7.33
2019-02-09T22:52:26.410Z,7.33
2019-02-09T22:54:57.624Z,7.33
2019-02-09T22:57:30.718Z,11.33
2019-02-09T23:00:02.641Z,11.00
2019-02-09T23:02:37.138Z,9.33
2019-02-09T23:05:32.437Z,7.00
2019-02-09T23:08:14.294Z,8.00
2019-02-09T23:11:06.391Z,8.00
2019-02-09T23:13:37.420Z,5.33
2019-02-09T23:16:19.591Z,13.00
2019-02-09T23:18:55.657Z,26.33
2019-02-09T23:21:29.361Z,15.00
2019-02-09T23:24:04.793Z,7.67
2019-02-09T23:26:45.921Z,9.00
2019-02-09T23:29:25.142Z,7.00
2019-02-09T23:31:56.635Z,6.33
2019-02-09T23:34:31.467Z,8.20
2019-02-09T23:37:02.657Z,7.00
2019-02-09T23:39:33.730Z,5.67
2019-02-09T23:42:27.556Z,8.33
2019-02-09T23:45:09.845Z,7.00
2019-02-09T23:47:47.099Z,7.00
2019-02-09T23:50:25.620Z,5.00
2019-02-09T23:52:57.677Z,9.00
2019-02-09T23:55:29.965Z,5.80
2019-02-09T23:58:04.270Z,5.00
